sensor_id;sensor_type;location;lat;lon;timestamp;pressure;altitude;pressure_sealevel;temperature;humidity
68107;BME280;54892;47.488;19.026;2023-03-01T00:00:16;101051.28;;;4.94;60.03
68107;BME280;54892;47.488;19.026;2023-03-01T00:03:20;101041.28;;;4.69;60.59
68107;BME280;54892;47.488;19.026;2023-03-01T00:06:24;101038.97;;;4.59;60.91
68107;BME280;54892;47.488;19.026;2023-03-01T00:09:28;101038.62;;;4.62;60.85
68107;BME280;54892;47.488;19.026;2023-03-01T00:12:31;101032.59;;;4.68;60.41
68107;BME280;54892;47.488;19.026;2023-03-01T00:15:37;101036.63;;;4.64;60.64
68107;BME280;54892;47.488;19.026;2023-03-01T00:18:41;101038.41;;;4.64;60.76
68107;BME280;54892;47.488;19.026;2023-03-01T00:21:45;101040.44;;;4.68;60.77
68107;BME280;54892;47.488;19.026;2023-03-01T00:24:48;101038.03;;;4.67;60.82
68107;BME280;54892;47.488;19.026;2023-03-01T00:27:51;101045.94;;;4.73;60.64
68107;BME280;54892;47.488;19.026;2023-03-01T00:30:55;101054.53;;;4.67;61.13
68107;BME280;54892;47.488;19.026;2023-03-01T00:33:58;101046.94;;;4.72;61.02
68107;BME280;54892;47.488;19.026;2023-03-01T00:37:03;101047.75;;;4.73;60.86
68107;BME280;54892;47.488;19.026;2023-03-01T00:40:08;101051.16;;;4.73;60.95
68107;BME280;54892;47.488;19.026;2023-03-01T00:43:11;101045.12;;;4.73;61.08
68107;BME280;54892;47.488;19.026;2023-03-01T00:46:15;101046.31;;;4.70;60.97
68107;BME280;54892;47.488;19.026;2023-03-01T00:49:19;101050.78;;;4.77;60.82
68107;BME280;54892;47.488;19.026;2023-03-01T00:52:24;101046.56;;;4.76;60.96
68107;BME280;54892;47.488;19.026;2023-03-01T00:55:27;101058.44;;;4.78;60.80
68107;BME280;54892;47.488;19.026;2023-03-01T00:58:30;101045.19;;;4.80;60.87
68107;BME280;54892;47.488;19.026;2023-03-01T01:01:34;101055.81;;;4.78;61.16
68107;BME280;54892;47.488;19.026;2023-03-01T01:04:38;101049.41;;;4.81;61.07
68107;BME280;54892;47.488;19.026;2023-03-01T01:07:42;101045.41;;;4.85;60.92
68107;BME280;54892;47.488;19.026;2023-03-01T01:10:45;101045.59;;;4.83;60.56
68107;BME280;54892;47.488;19.026;2023-03-01T01:13:49;101044.41;;;4.86;60.74
68107;BME280;54892;47.488;19.026;2023-03-01T01:16:52;101039.12;;;4.79;60.80
68107;BME280;54892;47.488;19.026;2023-03-01T01:19:55;101020.59;;;4.74;60.98
68107;BME280;54892;47.488;19.026;2023-03-01T01:23:00;101022.59;;;4.72;61.27
68107;BME280;54892;47.488;19.026;2023-03-01T01:26:04;101016.53;;;4.71;61.52
68107;BME280;54892;47.488;19.026;2023-03-01T01:29:07;101013.72;;;4.66;61.72
68107;BME280;54892;47.488;19.026;2023-03-01T01:32:11;101009.03;;;4.62;61.94
68107;BME280;54892;47.488;19.026;2023-03-01T01:35:14;101014.47;;;4.60;61.82
68107;BME280;54892;47.488;19.026;2023-03-01T01:38:19;101009.84;;;4.62;61.84
68107;BME280;54892;47.488;19.026;2023-03-01T01:41:23;101011.69;;;4.68;61.83
68107;BME280;54892;47.488;19.026;2023-03-01T01:44:27;101012.31;;;4.70;61.86
68107;BME280;54892;47.488;19.026;2023-03-01T01:47:31;101008.84;;;4.63;62.08
68107;BME280;54892;47.488;19.026;2023-03-01T01:50:34;101004.84;;;4.67;62.00
68107;BME280;54892;47.488;19.026;2023-03-01T01:53:41;100992.16;;;4.64;62.31
68107;BME280;54892;47.488;19.026;2023-03-01T01:56:47;100996.63;;;4.70;62.27
68107;BME280;54892;47.488;19.026;2023-03-01T01:59:52;100982.16;;;4.75;62.32
68107;BME280;54892;47.488;19.026;2023-03-01T02:02:58;100976.84;;;4.61;62.24
68107;BME280;54892;47.488;19.026;2023-03-01T02:06:03;100977.28;;;4.65;62.24
68107;BME280;54892;47.488;19.026;2023-03-01T02:09:14;100973.44;;;4.67;62.46
68107;BME280;54892;47.488;19.026;2023-03-01T02:12:18;100973.88;;;4.64;62.59
68107;BME280;54892;47.488;19.026;2023-03-01T02:15:22;100978.69;;;4.67;62.69
68107;BME280;54892;47.488;19.026;2023-03-01T02:18:25;100978.88;;;4.66;62.85
68107;BME280;54892;47.488;19.026;2023-03-01T02:21:30;100980.31;;;4.68;62.89
68107;BME280;54892;47.488;19.026;2023-03-01T02:24:40;100983.69;;;4.62;63.20
68107;BME280;54892;47.488;19.026;2023-03-01T02:27:51;100968.63;;;4.64;62.97
68107;BME280;54892;47.488;19.026;2023-03-01T02:30:58;100972.87;;;4.65;63.08
68107;BME280;54892;47.488;19.026;2023-03-01T02:34:20;100965.03;;;4.65;62.89
68107;BME280;54892;47.488;19.026;2023-03-01T02:37:24;100971.47;;;4.69;62.79
68107;BME280;54892;47.488;19.026;2023-03-01T02:40:28;100969.47;;;4.71;62.89
68107;BME280;54892;47.488;19.026;2023-03-01T02:43:33;100960.00;;;4.70;63.20
68107;BME280;54892;47.488;19.026;2023-03-01T02:46:42;100963.91;;;4.81;63.07
68107;BME280;54892;47.488;19.026;2023-03-01T02:49:46;100956.22;;;4.73;63.19
68107;BME280;54892;47.488;19.026;2023-03-01T02:52:52;100958.84;;;4.73;63.46
68107;BME280;54892;47.488;19.026;2023-03-01T02:55:58;100957.56;;;4.62;64.07
68107;BME280;54892;47.488;19.026;2023-03-01T02:59:02;100949.31;;;4.65;63.95
68107;BME280;54892;47.488;19.026;2023-03-01T03:02:07;100954.16;;;4.68;63.85
68107;BME280;54892;47.488;19.026;2023-03-01T03:05:10;100947.62;;;4.51;64.54
68107;BME280;54892;47.488;19.026;2023-03-01T03:08:14;100950.88;;;4.60;64.31
68107;BME280;54892;47.488;19.026;2023-03-01T03:11:25;100954.19;;;4.75;64.17
68107;BME280;54892;47.488;19.026;2023-03-01T03:14:28;100953.75;;;4.65;64.55
68107;BME280;54892;47.488;19.026;2023-03-01T03:17:38;100956.97;;;4.67;64.51
68107;BME280;54892;47.488;19.026;2023-03-01T03:20:42;100948.41;;;4.51;65.04
68107;BME280;54892;47.488;19.026;2023-03-01T03:23:45;100936.31;;;4.44;65.41
68107;BME280;54892;47.488;19.026;2023-03-01T03:26:48;100932.31;;;4.48;65.30
68107;BME280;54892;47.488;19.026;2023-03-01T03:29:52;100928.91;;;4.54;65.17
68107;BME280;54892;47.488;19.026;2023-03-01T03:32:56;100930.31;;;4.50;65.36
68107;BME280;54892;47.488;19.026;2023-03-01T03:36:00;100922.28;;;4.51;65.21
68107;BME280;54892;47.488;19.026;2023-03-01T03:39:03;100931.03;;;4.65;64.93
68107;BME280;54892;47.488;19.026;2023-03-01T03:42:07;100930.28;;;4.43;65.57
68107;BME280;54892;47.488;19.026;2023-03-01T03:45:12;100944.16;;;4.44;65.37
68107;BME280;54892;47.488;19.026;2023-03-01T03:48:16;100940.34;;;4.46;65.39
68107;BME280;54892;47.488;19.026;2023-03-01T03:51:19;100932.13;;;4.49;65.44
68107;BME280;54892;47.488;19.026;2023-03-01T03:54:24;100937.97;;;4.51;65.38
68107;BME280;54892;47.488;19.026;2023-03-01T03:57:27;100935.97;;;4.53;65.47
68107;BME280;54892;47.488;19.026;2023-03-01T04:00:30;100931.75;;;4.52;65.60
68107;BME280;54892;47.488;19.026;2023-03-01T04:03:35;100933.50;;;4.45;66.05
68107;BME280;54892;47.488;19.026;2023-03-01T04:06:38;100938.37;;;4.55;65.74
68107;BME280;54892;47.488;19.026;2023-03-01T04:09:41;100939.16;;;4.49;66.00
68107;BME280;54892;47.488;19.026;2023-03-01T04:12:45;100938.53;;;4.47;65.97
68107;BME280;54892;47.488;19.026;2023-03-01T04:15:48;100934.09;;;4.47;65.92
68107;BME280;54892;47.488;19.026;2023-03-01T04:18:53;100931.31;;;4.49;63.81
68107;BME280;54892;47.488;19.026;2023-03-01T04:21:56;100934.78;;;4.56;63.61
68107;BME280;54892;47.488;19.026;2023-03-01T04:24:59;100934.59;;;4.29;64.46
68107;BME280;54892;47.488;19.026;2023-03-01T04:28:07;100942.84;;;4.33;64.15
68107;BME280;54892;47.488;19.026;2023-03-01T04:31:12;100932.66;;;4.38;64.06
68107;BME280;54892;47.488;19.026;2023-03-01T04:34:17;100939.50;;;4.39;64.02
68107;BME280;54892;47.488;19.026;2023-03-01T04:37:19;100950.75;;;4.39;64.10
68107;BME280;54892;47.488;19.026;2023-03-01T04:40:23;100938.31;;;4.41;64.12
68107;BME280;54892;47.488;19.026;2023-03-01T04:43:26;100937.94;;;4.45;64.12
68107;BME280;54892;47.488;19.026;2023-03-01T04:46:29;100944.78;;;4.46;64.34
68107;BME280;54892;47.488;19.026;2023-03-01T04:49:34;100939.78;;;4.51;64.08
68107;BME280;54892;47.488;19.026;2023-03-01T04:52:37;100930.31;;;4.50;64.34
68107;BME280;54892;47.488;19.026;2023-03-01T04:55:40;100921.34;;;4.31;64.95
68107;BME280;54892;47.488;19.026;2023-03-01T04:58:44;100929.41;;;4.36;64.89
68107;BME280;54892;47.488;19.026;2023-03-01T05:01:47;100926.56;;;4.31;64.95
68107;BME280;54892;47.488;19.026;2023-03-01T05:04:52;100925.59;;;4.38;65.02
68107;BME280;54892;47.488;19.026;2023-03-01T05:07:59;100920.22;;;4.40;65.07
68107;BME280;54892;47.488;19.026;2023-03-01T05:11:04;100921.25;;;4.46;65.01
68107;BME280;54892;47.488;19.026;2023-03-01T05:14:10;100919.38;;;4.39;65.16
68107;BME280;54892;47.488;19.026;2023-03-01T05:17:14;100926.59;;;4.37;65.42
68107;BME280;54892;47.488;19.026;2023-03-01T05:20:19;100923.84;;;4.46;65.23
68107;BME280;54892;47.488;19.026;2023-03-01T05:23:24;100925.09;;;4.50;65.25
68107;BME280;54892;47.488;19.026;2023-03-01T05:26:27;100931.94;;;4.51;65.21
68107;BME280;54892;47.488;19.026;2023-03-01T05:29:31;100933.78;;;4.57;65.18
68107;BME280;54892;47.488;19.026;2023-03-01T05:32:36;100938.34;;;4.48;65.51
68107;BME280;54892;47.488;19.026;2023-03-01T05:35:41;100936.78;;;4.54;65.33
68107;BME280;54892;47.488;19.026;2023-03-01T05:38:45;100937.63;;;4.61;65.15
68107;BME280;54892;47.488;19.026;2023-03-01T05:41:48;100932.41;;;4.61;65.28
68107;BME280;54892;47.488;19.026;2023-03-01T05:44:52;100929.75;;;4.54;65.69
68107;BME280;54892;47.488;19.026;2023-03-01T05:47:55;100944.47;;;4.62;65.42
68107;BME280;54892;47.488;19.026;2023-03-01T05:51:00;100937.22;;;4.57;65.40
68107;BME280;54892;47.488;19.026;2023-03-01T05:54:03;100933.16;;;4.55;65.37
68107;BME280;54892;47.488;19.026;2023-03-01T05:57:07;100932.78;;;4.58;65.35
68107;BME280;54892;47.488;19.026;2023-03-01T06:00:10;100941.63;;;4.57;65.42
68107;BME280;54892;47.488;19.026;2023-03-01T06:03:14;100942.84;;;4.61;65.40
68107;BME280;54892;47.488;19.026;2023-03-01T06:06:19;100944.47;;;4.62;65.28
68107;BME280;54892;47.488;19.026;2023-03-01T06:09:22;100944.09;;;4.65;65.24
68107;BME280;54892;47.488;19.026;2023-03-01T06:12:29;100946.50;;;4.67;65.30
68107;BME280;54892;47.488;19.026;2023-03-01T06:15:33;100948.13;;;4.68;65.40
68107;BME280;54892;47.488;19.026;2023-03-01T06:18:36;100941.66;;;4.64;65.41
68107;BME280;54892;47.488;19.026;2023-03-01T06:21:41;100946.31;;;4.68;65.32
68107;BME280;54892;47.488;19.026;2023-03-01T06:24:44;100946.53;;;4.73;65.25
68107;BME280;54892;47.488;19.026;2023-03-01T06:27:48;100940.12;;;4.76;65.01
68107;BME280;54892;47.488;19.026;2023-03-01T06:30:52;100952.19;;;4.77;65.07
68107;BME280;54892;47.488;19.026;2023-03-01T06:33:55;100948.16;;;4.75;65.26
68107;BME280;54892;47.488;19.026;2023-03-01T06:36:59;100950.78;;;4.75;65.06
68107;BME280;54892;47.488;19.026;2023-03-01T06:40:04;100958.59;;;4.68;65.18
68107;BME280;54892;47.488;19.026;2023-03-01T06:43:10;100962.19;;;4.67;65.43
68107;BME280;54892;47.488;19.026;2023-03-01T06:46:14;100967.84;;;4.70;65.14
68107;BME280;54892;47.488;19.026;2023-03-01T06:49:18;100971.12;;;4.79;64.50
68107;BME280;54892;47.488;19.026;2023-03-01T06:52:22;100972.06;;;4.71;64.84
68107;BME280;54892;47.488;19.026;2023-03-01T06:55:26;100978.88;;;4.66;64.94
68107;BME280;54892;47.488;19.026;2023-03-01T06:58:30;100974.06;;;4.69;64.44
68107;BME280;54892;47.488;19.026;2023-03-01T07:01:34;100968.66;;;4.71;64.30
68107;BME280;54892;47.488;19.026;2023-03-01T07:04:37;100968.91;;;4.83;64.00
68107;BME280;54892;47.488;19.026;2023-03-01T07:07:42;100963.94;;;4.88;63.88
68107;BME280;54892;47.488;19.026;2023-03-01T07:10:45;100974.66;;;5.00;63.61
68107;BME280;54892;47.488;19.026;2023-03-01T07:13:48;100971.63;;;4.96;63.61
68107;BME280;54892;47.488;19.026;2023-03-01T07:16:51;100962.97;;;4.96;63.65
68107;BME280;54892;47.488;19.026;2023-03-01T07:19:54;100966.59;;;4.95;63.89
68107;BME280;54892;47.488;19.026;2023-03-01T07:22:59;100967.66;;;5.14;63.59
68107;BME280;54892;47.488;19.026;2023-03-01T07:26:02;100963.25;;;5.14;63.11
68107;BME280;54892;47.488;19.026;2023-03-01T07:29:06;100958.84;;;5.22;62.54
68107;BME280;54892;47.488;19.026;2023-03-01T07:32:10;100955.41;;;5.14;62.80
68107;BME280;54892;47.488;19.026;2023-03-01T07:35:13;100959.66;;;5.22;62.34
68107;BME280;54892;47.488;19.026;2023-03-01T07:38:18;100962.03;;;5.10;61.93
68107;BME280;54892;47.488;19.026;2023-03-01T07:41:21;100961.06;;;5.25;61.73
68107;BME280;54892;47.488;19.026;2023-03-01T07:44:25;100965.16;;;5.34;61.39
68107;BME280;54892;47.488;19.026;2023-03-01T07:47:28;100963.34;;;5.41;61.33
68107;BME280;54892;47.488;19.026;2023-03-01T07:50:31;100969.56;;;5.33;61.42
68107;BME280;54892;47.488;19.026;2023-03-01T07:53:35;100966.81;;;5.48;61.46
68107;BME280;54892;47.488;19.026;2023-03-01T07:56:39;100953.75;;;5.69;60.87
68107;BME280;54892;47.488;19.026;2023-03-01T07:59:42;100948.91;;;5.66;60.35
68107;BME280;54892;47.488;19.026;2023-03-01T08:02:45;100954.53;;;5.62;60.63
68107;BME280;54892;47.488;19.026;2023-03-01T08:05:48;100956.78;;;5.72;60.40
68107;BME280;54892;47.488;19.026;2023-03-01T08:08:53;100953.38;;;5.85;59.98
68107;BME280;54892;47.488;19.026;2023-03-01T08:11:56;100954.78;;;5.94;59.42
68107;BME280;54892;47.488;19.026;2023-03-01T08:15:01;100957.84;;;5.98;58.93
68107;BME280;54892;47.488;19.026;2023-03-01T08:18:04;100952.03;;;6.03;58.09
68107;BME280;54892;47.488;19.026;2023-03-01T08:21:09;100948.00;;;6.07;58.10
68107;BME280;54892;47.488;19.026;2023-03-01T08:24:13;100946.19;;;6.14;57.82
68107;BME280;54892;47.488;19.026;2023-03-01T08:27:16;100940.53;;;6.24;57.73
68107;BME280;54892;47.488;19.026;2023-03-01T08:30:20;100937.09;;;6.23;57.81
68107;BME280;54892;47.488;19.026;2023-03-01T08:33:25;100937.31;;;6.22;57.52
68107;BME280;54892;47.488;19.026;2023-03-01T08:36:30;100927.78;;;6.41;56.79
68107;BME280;54892;47.488;19.026;2023-03-01T08:39:35;100935.06;;;6.39;56.85
68107;BME280;54892;47.488;19.026;2023-03-01T08:42:38;100932.81;;;6.63;56.72
68107;BME280;54892;47.488;19.026;2023-03-01T08:45:42;100926.53;;;6.70;56.62
68107;BME280;54892;47.488;19.026;2023-03-01T08:48:45;100930.56;;;6.73;56.38
68107;BME280;54892;47.488;19.026;2023-03-01T08:51:50;100935.75;;;6.86;55.69
68107;BME280;54892;47.488;19.026;2023-03-01T08:54:54;100918.56;;;6.97;55.27
68107;BME280;54892;47.488;19.026;2023-03-01T08:57:57;100918.87;;;6.62;56.45
68107;BME280;54892;47.488;19.026;2023-03-01T09:01:04;100921.47;;;6.82;56.09
68107;BME280;54892;47.488;19.026;2023-03-01T09:04:09;100911.03;;;6.69;56.05
68107;BME280;54892;47.488;19.026;2023-03-01T09:07:13;100902.69;;;7.24;54.90
68107;BME280;54892;47.488;19.026;2023-03-01T09:10:17;100913.97;;;7.31;55.09
68107;BME280;54892;47.488;19.026;2023-03-01T09:13:21;100908.47;;;7.40;54.41
68107;BME280;54892;47.488;19.026;2023-03-01T09:16:26;100902.59;;;7.44;54.53
68107;BME280;54892;47.488;19.026;2023-03-01T09:19:31;100902.34;;;7.53;53.68
68107;BME280;54892;47.488;19.026;2023-03-01T09:22:34;100899.62;;;7.34;54.08
68107;BME280;54892;47.488;19.026;2023-03-01T09:25:39;100899.94;;;7.51;54.50
68107;BME280;54892;47.488;19.026;2023-03-01T09:28:42;100887.13;;;7.61;53.80
68107;BME280;54892;47.488;19.026;2023-03-01T09:31:45;100883.75;;;7.80;53.42
68107;BME280;54892;47.488;19.026;2023-03-01T09:34:48;100878.66;;;7.85;53.95
68107;BME280;54892;47.488;19.026;2023-03-01T09:38:06;100873.72;;;7.95;53.11
68107;BME280;54892;47.488;19.026;2023-03-01T09:41:11;100872.38;;;8.11;52.50
68107;BME280;54892;47.488;19.026;2023-03-01T09:44:34;100866.16;;;8.05;53.00
68107;BME280;54892;47.488;19.026;2023-03-01T09:47:39;100861.50;;;8.07;53.04
68107;BME280;54892;47.488;19.026;2023-03-01T09:50:44;100861.09;;;8.04;52.84
68107;BME280;54892;47.488;19.026;2023-03-01T09:53:48;100855.72;;;7.73;53.38
68107;BME280;54892;47.488;19.026;2023-03-01T09:56:56;100856.50;;;7.99;53.32
68107;BME280;54892;47.488;19.026;2023-03-01T10:00:17;100856.19;;;7.89;53.58
68107;BME280;54892;47.488;19.026;2023-03-01T10:03:24;100856.72;;;7.98;53.41
68107;BME280;54892;47.488;19.026;2023-03-01T10:06:28;100854.78;;;8.30;52.76
68107;BME280;54892;47.488;19.026;2023-03-01T10:09:36;100856.69;;;8.23;52.35
68107;BME280;54892;47.488;19.026;2023-03-01T10:12:41;100856.09;;;8.21;52.63
68107;BME280;54892;47.488;19.026;2023-03-01T10:15:47;100846.44;;;8.15;52.62
68107;BME280;54892;47.488;19.026;2023-03-01T10:18:52;100842.81;;;7.90;53.31
68107;BME280;54892;47.488;19.026;2023-03-01T10:21:57;100834.81;;;7.85;53.96
68107;BME280;54892;47.488;19.026;2023-03-01T10:25:02;100823.94;;;7.75;54.07
68107;BME280;54892;47.488;19.026;2023-03-01T10:28:10;100822.75;;;7.77;54.38
68107;BME280;54892;47.488;19.026;2023-03-01T10:31:18;100817.94;;;7.93;54.15
68107;BME280;54892;47.488;19.026;2023-03-01T10:34:27;100816.22;;;8.05;53.75
68107;BME280;54892;47.488;19.026;2023-03-01T10:37:31;100804.44;;;8.08;53.56
68107;BME280;54892;47.488;19.026;2023-03-01T10:40:41;100810.37;;;8.22;53.37
68107;BME280;54892;47.488;19.026;2023-03-01T10:43:54;100795.91;;;8.13;53.72
68107;BME280;54892;47.488;19.026;2023-03-01T10:46:59;100797.00;;;8.23;53.56
68107;BME280;54892;47.488;19.026;2023-03-01T10:50:03;100796.41;;;8.21;53.24
68107;BME280;54892;47.488;19.026;2023-03-01T10:53:09;100788.91;;;8.25;53.34
68107;BME280;54892;47.488;19.026;2023-03-01T10:56:21;100781.16;;;8.49;53.22
68107;BME280;54892;47.488;19.026;2023-03-01T10:59:29;100780.09;;;8.68;52.46
68107;BME280;54892;47.488;19.026;2023-03-01T11:02:32;100773.75;;;8.88;51.92
68107;BME280;54892;47.488;19.026;2023-03-01T11:05:49;100763.16;;;8.64;52.24
68107;BME280;54892;47.488;19.026;2023-03-01T11:08:53;100767.16;;;8.67;52.71
68107;BME280;54892;47.488;19.026;2023-03-01T11:11:57;100765.44;;;9.03;51.83
68107;BME280;54892;47.488;19.026;2023-03-01T11:15:02;100771.88;;;9.19;51.27
68107;BME280;54892;47.488;19.026;2023-03-01T11:18:15;100758.56;;;9.02;51.39
68107;BME280;54892;47.488;19.026;2023-03-01T11:21:22;100755.13;;;8.90;52.16
68107;BME280;54892;47.488;19.026;2023-03-01T11:24:27;100753.41;;;8.95;51.93
68107;BME280;54892;47.488;19.026;2023-03-01T11:27:32;100751.72;;;9.13;51.82
68107;BME280;54892;47.488;19.026;2023-03-01T11:30:43;100750.16;;;9.24;52.11
68107;BME280;54892;47.488;19.026;2023-03-01T11:34:06;100745.47;;;9.50;50.69
68107;BME280;54892;47.488;19.026;2023-03-01T11:37:13;100745.00;;;9.41;51.22
68107;BME280;54892;47.488;19.026;2023-03-01T11:40:21;100741.31;;;9.18;51.33
68107;BME280;54892;47.488;19.026;2023-03-01T11:43:28;100742.91;;;9.19;51.43
68107;BME280;54892;47.488;19.026;2023-03-01T11:46:46;100733.22;;;9.32;51.25
68107;BME280;54892;47.488;19.026;2023-03-01T11:50:00;100740.31;;;9.43;50.91
68107;BME280;54892;47.488;19.026;2023-03-01T11:53:14;100738.72;;;9.54;50.72
68107;BME280;54892;47.488;19.026;2023-03-01T11:56:25;100741.22;;;9.72;50.66
68107;BME280;54892;47.488;19.026;2023-03-01T11:59:34;100730.84;;;10.06;49.79
68107;BME280;54892;47.488;19.026;2023-03-01T12:06:14;100726.62;;;9.94;49.91
68107;BME280;54892;47.488;19.026;2023-03-01T12:09:29;100727.75;;;9.98;49.51
68107;BME280;54892;47.488;19.026;2023-03-01T12:12:41;100715.72;;;10.02;49.32
68107;BME280;54892;47.488;19.026;2023-03-01T12:15:51;100712.28;;;10.01;49.19
68107;BME280;54892;47.488;19.026;2023-03-01T12:19:03;100711.19;;;10.14;49.28
68107;BME280;54892;47.488;19.026;2023-03-01T12:22:15;100711.50;;;10.30;49.13
68107;BME280;54892;47.488;19.026;2023-03-01T12:25:21;100700.25;;;10.34;48.75
68107;BME280;54892;47.488;19.026;2023-03-01T12:28:33;100692.22;;;10.41;48.58
68107;BME280;54892;47.488;19.026;2023-03-01T12:35:18;100688.16;;;10.50;48.84
68107;BME280;54892;47.488;19.026;2023-03-01T12:38:33;100676.16;;;10.31;48.46
68107;BME280;54892;47.488;19.026;2023-03-01T12:41:46;100671.44;;;10.62;48.51
68107;BME280;54892;47.488;19.026;2023-03-01T12:44:54;100670.25;;;10.53;48.09
68107;BME280;54892;47.488;19.026;2023-03-01T12:48:08;100671.19;;;10.46;48.43
68107;BME280;54892;47.488;19.026;2023-03-01T12:51:17;100667.44;;;10.30;48.49
68107;BME280;54892;47.488;19.026;2023-03-01T12:54:25;100666.88;;;10.28;48.93
68107;BME280;54892;47.488;19.026;2023-03-01T12:57:29;100667.44;;;10.30;49.34
68107;BME280;54892;47.488;19.026;2023-03-01T13:00:41;100668.69;;;10.40;48.71
68107;BME280;54892;47.488;19.026;2023-03-01T13:07:15;100660.78;;;10.28;48.87
68107;BME280;54892;47.488;19.026;2023-03-01T13:10:23;100662.47;;;10.17;49.94
68107;BME280;54892;47.488;19.026;2023-03-01T13:13:28;100656.91;;;10.30;49.66
68107;BME280;54892;47.488;19.026;2023-03-01T13:16:40;100666.41;;;10.31;49.17
68107;BME280;54892;47.488;19.026;2023-03-01T13:19:55;100654.25;;;10.30;49.14
68107;BME280;54892;47.488;19.026;2023-03-01T13:23:03;100652.06;;;10.39;48.78
68107;BME280;54892;47.488;19.026;2023-03-01T13:26:15;100651.81;;;10.41;48.68
68107;BME280;54892;47.488;19.026;2023-03-01T13:29:25;100646.09;;;10.32;49.16
68107;BME280;54892;47.488;19.026;2023-03-01T13:32:29;100627.41;;;10.04;49.69
68107;BME280;54892;47.488;19.026;2023-03-01T13:35:49;100619.13;;;10.13;50.59
68107;BME280;54892;47.488;19.026;2023-03-01T13:38:55;100622.38;;;10.03;50.95
68107;BME280;54892;47.488;19.026;2023-03-01T13:42:00;100633.22;;;10.35;50.07
68107;BME280;54892;47.488;19.026;2023-03-01T13:45:05;100624.09;;;10.55;48.86
68107;BME280;54892;47.488;19.026;2023-03-01T13:48:18;100621.22;;;10.28;49.51
68107;BME280;54892;47.488;19.026;2023-03-01T13:51:26;100612.66;;;10.49;49.59
68107;BME280;54892;47.488;19.026;2023-03-01T13:54:30;100611.47;;;10.74;48.42
68107;BME280;54892;47.488;19.026;2023-03-01T13:57:36;100603.53;;;10.57;48.98
68107;BME280;54892;47.488;19.026;2023-03-01T14:00:41;100600.31;;;10.55;49.99
68107;BME280;54892;47.488;19.026;2023-03-01T14:03:44;100593.69;;;10.53;49.33
68107;BME280;54892;47.488;19.026;2023-03-01T14:06:47;100597.94;;;10.71;48.78
68107;BME280;54892;47.488;19.026;2023-03-01T14:09:51;100594.81;;;10.74;48.96
68107;BME280;54892;47.488;19.026;2023-03-01T14:12:57;100595.00;;;10.50;49.35
68107;BME280;54892;47.488;19.026;2023-03-01T14:16:18;100578.59;;;10.48;49.66
68107;BME280;54892;47.488;19.026;2023-03-01T14:19:25;100574.09;;;10.48;49.72
68107;BME280;54892;47.488;19.026;2023-03-01T14:22:34;100568.81;;;10.48;49.69
68107;BME280;54892;47.488;19.026;2023-03-01T14:25:38;100566.84;;;10.56;50.03
68107;BME280;54892;47.488;19.026;2023-03-01T14:28:49;100566.25;;;10.71;49.45
68107;BME280;54892;47.488;19.026;2023-03-01T14:31:53;100571.22;;;10.67;49.61
68107;BME280;54892;47.488;19.026;2023-03-01T14:34:56;100562.09;;;10.75;50.20
68107;BME280;54892;47.488;19.026;2023-03-01T14:38:00;100555.06;;;10.63;49.52
68107;BME280;54892;47.488;19.026;2023-03-01T14:41:04;100557.38;;;10.60;49.60
68107;BME280;54892;47.488;19.026;2023-03-01T14:44:12;100537.94;;;10.66;49.13
68107;BME280;54892;47.488;19.026;2023-03-01T14:47:20;100543.78;;;10.51;49.91
68107;BME280;54892;47.488;19.026;2023-03-01T14:50:26;100537.16;;;10.48;50.42
68107;BME280;54892;47.488;19.026;2023-03-01T14:53:30;100534.41;;;10.43;50.57
68107;BME280;54892;47.488;19.026;2023-03-01T14:56:43;100540.50;;;10.44;50.30
68107;BME280;54892;47.488;19.026;2023-03-01T14:59:49;100541.87;;;10.46;50.45
68107;BME280;54892;47.488;19.026;2023-03-01T15:02:56;100537.16;;;10.48;50.38
68107;BME280;54892;47.488;19.026;2023-03-01T15:06:02;100529.47;;;10.47;50.51
68107;BME280;54892;47.488;19.026;2023-03-01T15:09:05;100526.44;;;10.55;50.38
68107;BME280;54892;47.488;19.026;2023-03-01T15:15:46;100525.47;;;10.44;51.18
68107;BME280;54892;47.488;19.026;2023-03-01T15:18:50;100526.69;;;10.54;51.10
68107;BME280;54892;47.488;19.026;2023-03-01T15:21:54;100532.84;;;10.42;51.13
68107;BME280;54892;47.488;19.026;2023-03-01T15:24:58;100534.44;;;10.60;50.56
68107;BME280;54892;47.488;19.026;2023-03-01T15:28:01;100530.72;;;10.78;49.79
68107;BME280;54892;47.488;19.026;2023-03-01T15:31:13;100538.31;;;10.75;50.04
68107;BME280;54892;47.488;19.026;2023-03-01T15:34:21;100534.12;;;10.57;50.45
68107;BME280;54892;47.488;19.026;2023-03-01T15:37:36;100529.22;;;10.48;50.69
68107;BME280;54892;47.488;19.026;2023-03-01T15:40:48;100524.78;;;10.49;50.87
68107;BME280;54892;47.488;19.026;2023-03-01T15:43:52;100527.63;;;10.47;50.76
68107;BME280;54892;47.488;19.026;2023-03-01T15:46:58;100531.28;;;10.29;51.37
68107;BME280;54892;47.488;19.026;2023-03-01T15:50:01;100532.94;;;10.35;51.45
68107;BME280;54892;47.488;19.026;2023-03-01T15:53:05;100527.69;;;10.35;51.31
68107;BME280;54892;47.488;19.026;2023-03-01T15:56:09;100532.91;;;10.30;51.64
68107;BME280;54892;47.488;19.026;2023-03-01T15:59:13;100532.56;;;10.27;51.62
68107;BME280;54892;47.488;19.026;2023-03-01T16:02:18;100524.41;;;10.28;51.83
68107;BME280;54892;47.488;19.026;2023-03-01T16:05:23;100531.91;;;10.19;51.90
68107;BME280;54892;47.488;19.026;2023-03-01T16:08:28;100537.41;;;10.01;51.94
68107;BME280;54892;47.488;19.026;2023-03-01T16:11:31;100537.88;;;9.98;52.40
68107;BME280;54892;47.488;19.026;2023-03-01T16:14:38;100538.84;;;9.92;52.33
68107;BME280;54892;47.488;19.026;2023-03-01T16:17:44;100538.69;;;9.98;51.84
68107;BME280;54892;47.488;19.026;2023-03-01T16:20:47;100548.94;;;9.95;51.93